Time;durP1;ratioP1;P1;durP2;ratioP2;P2;SDS_P1;SDS_P2;PMS_P1;PMS_P2;Temp;Humidity;BMP_temperature;BMP_pressure;BME280_temperature;BME280_humidity;BME280_pressure;Samples;Min_cycle;Max_cycle;Signal;HPM_P1;HPM_P2
2022/11/18 00:08:48;;;;;;;11.15;3.03;;;;;;;;;;20911682;28;20136;-71
2022/11/18 00:18:50;;;;;;;10.02;2.10;;;;;;;;;;20913909;28;20063;-70
2022/11/18 00:28:52;;;;;;;10.30;2.72;;;;;;;;;;20925001;28;20056;-72
2022/11/18 00:38:54;;;;;;;13.73;2.50;;;;;;;;;;20924364;28;20048;-69
2022/11/18 00:48:56;;;;;;;12.15;2.00;;;;;;;;;;20923153;28;20052;-71
2022/11/18 00:58:57;;;;;;;11.65;2.20;;;;;;;;;;20923285;28;20055;-71
2022/11/18 01:08:59;;;;;;;12.35;2.42;;;;;;;;;;20905668;28;20125;-71
2022/11/18 01:19:01;;;;;;;14.00;2.35;;;;;;;;;;20923966;28;20085;-71
2022/11/18 01:29:03;;;;;;;12.23;2.58;;;;;;;;;;21087421;23;20056;-60
2022/11/18 01:39:06;;;;;;;13.88;2.35;;;;;;;;;;21003534;28;20403;-60
2022/11/18 01:49:14;;;;;;;12.10;1.85;;;;;;;;;;21002046;28;20182;-59
2022/11/18 01:59:20;;;;;;;10.85;2.65;;;;;;;;;;21001043;28;20353;-59
2022/11/18 02:09:22;;;;;;;12.30;1.65;;;;;;;;;;21000015;28;20052;-59
2022/11/18 02:19:40;;;;;;;37.50;23.50;;;;;;;;;;20999120;28;20456;-59
2022/11/18 02:29:49;;;;;;;12.73;2.42;;;;;;;;;;20998174;28;20525;-58
2022/11/18 02:39:57;;;;;;;5.27;1.63;;;;;;;;;;20996738;28;20053;-59
2022/11/18 02:50:03;;;;;;;8.47;1.47;;;;;;;;;;20997894;28;20045;-59
2022/11/18 03:00:07;;;;;;;6.85;1.48;;;;;;;;;;20996552;28;20048;-58
2022/11/18 03:10:12;;;;;;;9.27;1.63;;;;;;;;;;20996930;28;20045;-58
2022/11/18 03:20:21;;;;;;;5.07;1.10;;;;;;;;;;20996789;28;20091;-58
2022/11/18 03:30:25;;;;;;;6.45;1.42;;;;;;;;;;20995246;28;20049;-58
2022/11/18 03:40:31;;;;;;;7.57;1.10;;;;;;;;;;20994844;28;20132;-58
2022/11/18 03:50:37;;;;;;;5.40;1.08;;;;;;;;;;20995780;28;20132;-58
2022/11/18 04:00:44;;;;;;;6.25;1.30;;;;;;;;;;21009060;28;20083;-58
2022/11/18 04:10:54;;;;;;;5.78;0.77;;;;;;;;;;21009443;28;20389;-58
2022/11/18 04:20:57;;;;;;;2.23;0.60;;;;;;;;;;21008264;28;20048;-58
2022/11/18 04:31:00;;;;;;;4.95;1.08;;;;;;;;;;20989394;28;20106;-59
2022/11/18 04:41:02;;;;;;;3.30;0.80;;;;;;;;;;21007371;28;20048;-58
2022/11/18 04:51:04;;;;;;;4.43;1.05;;;;;;;;;;21007613;28;20051;-59
2022/11/18 05:01:06;;;;;;;5.55;1.52;;;;;;;;;;21005688;28;20052;-58
2022/11/18 05:21:29;;;;;;;9.30;1.67;;;;;;;;;;21004958;28;20121;-58
2022/11/18 05:31:32;;;;;;;5.50;1.45;;;;;;;;;;21003668;28;20123;-57
2022/11/18 05:51:54;;;;;;;5.38;1.45;;;;;;;;;;21001132;28;20053;-58
2022/11/18 06:02:00;;;;;;;6.22;1.42;;;;;;;;;;21001146;28;20072;-58
2022/11/18 06:12:03;;;;;;;6.47;1.48;;;;;;;;;;20999508;28;20143;-58
2022/11/18 06:22:06;;;;;;;5.22;1.33;;;;;;;;;;20999297;28;20079;-57
2022/11/18 06:32:08;;;;;;;6.80;1.60;;;;;;;;;;20998286;28;20052;-59
2022/11/18 06:42:10;;;;;;;2.65;1.23;;;;;;;;;;20997813;28;20057;-58
2022/11/18 06:52:12;;;;;;;4.68;1.80;;;;;;;;;;20979089;28;20126;-58
2022/11/18 07:02:14;;;;;;;7.95;1.73;;;;;;;;;;20996626;28;20048;-60
2022/11/18 07:12:16;;;;;;;7.88;1.67;;;;;;;;;;20996658;28;20044;-60
2022/11/18 07:22:18;;;;;;;4.20;1.20;;;;;;;;;;20995424;28;20052;-59
2022/11/18 07:32:20;;;;;;;4.50;1.58;;;;;;;;;;21005584;28;20106;-59
2022/11/18 07:42:22;;;;;;;9.30;2.65;;;;;;;;;;21012080;28;20377;-58
2022/11/18 07:52:24;;;;;;;2.65;0.98;;;;;;;;;;21010677;28;20045;-59
2022/11/18 08:02:26;;;;;;;3.30;0.95;;;;;;;;;;21009262;28;20048;-60
2022/11/18 08:12:29;;;;;;;2.17;0.50;;;;;;;;;;21008461;28;20045;-57
2022/11/18 08:22:31;;;;;;;3.50;0.85;;;;;;;;;;21008022;28;20084;-60
2022/11/18 08:32:34;;;;;;;4.43;0.82;;;;;;;;;;21007052;28;20052;-59
2022/11/18 08:42:37;;;;;;;2.15;0.60;;;;;;;;;;21005789;28;20055;-57
2022/11/18 08:52:39;;;;;;;3.55;0.82;;;;;;;;;;21005945;28;20044;-60
2022/11/18 09:02:41;;;;;;;4.40;0.82;;;;;;;;;;21005519;28;20404;-60
2022/11/18 09:12:43;;;;;;;6.07;1.15;;;;;;;;;;21004199;28;20049;-58
2022/11/18 09:22:45;;;;;;;15.15;7.47;;;;;;;;;;21004239;28;20083;-60
2022/11/18 09:32:47;;;;;;;2.58;0.60;;;;;;;;;;21002263;28;20211;-60
2022/11/18 09:42:57;;;;;;;1.55;0.60;;;;;;;;;;21002644;28;20049;-59
2022/11/18 09:53:15;;;;;;;1.00;0.50;;;;;;;;;;21000956;28;20523;-59
2022/11/18 10:03:27;;;;;;;2.22;0.45;;;;;;;;;;20999108;28;20044;-59
2022/11/18 10:13:29;;;;;;;1.63;0.30;;;;;;;;;;20999378;28;20052;-62
2022/11/18 10:23:43;;;;;;;1.00;0.38;;;;;;;;;;20996998;28;20049;-58
2022/11/18 10:33:45;;;;;;;1.02;0.50;;;;;;;;;;20996574;28;20102;-60
2022/11/18 10:43:54;;;;;;;1.20;0.50;;;;;;;;;;20996699;28;20047;-60
2022/11/18 10:54:12;;;;;;;1.23;0.60;;;;;;;;;;20997186;28;20562;-58
2022/11/18 11:04:16;;;;;;;;;;;;;;;;;;20996080;28;20053;-59
2022/11/18 11:14:27;;;;;;;1.30;0.40;;;;;;;;;;20995413;28;19921;-60
2022/11/18 11:24:29;;;;;;;1.10;0.30;;;;;;;;;;20994564;28;20082;-61
2022/11/18 11:34:34;;;;;;;1.60;0.28;;;;;;;;;;20994236;28;20052;-59
2022/11/18 11:44:46;;;;;;;1.52;0.25;;;;;;;;;;20994417;28;20044;-60
2022/11/18 11:54:51;;;;;;;23.67;14.30;;;;;;;;;;20994223;28;20059;-59
2022/11/18 12:05:00;;;;;;;6.50;4.15;;;;;;;;;;20964254;28;20044;-59
2022/11/18 12:15:06;;;;;;;1.37;0.40;;;;;;;;;;20995728;28;20049;-58
2022/11/18 12:25:28;;;;;;;2.75;0.50;;;;;;;;;;21007971;28;20053;-59
2022/11/18 12:35:35;;;;;;;3.30;0.38;;;;;;;;;;20989600;28;20087;-59
2022/11/18 12:45:37;;;;;;;0.63;0.30;;;;;;;;;;21006119;28;20049;-59
2022/11/18 12:55:39;;;;;;;2.72;0.60;;;;;;;;;;21006149;28;20044;-59
2022/11/18 13:05:42;;;;;;;0.82;0.20;;;;;;;;;;21005132;28;20400;-59
2022/11/18 13:26:19;;;;;;;1.75;0.28;;;;;;;;;;21002276;28;20143;-60
2022/11/18 13:36:25;;;;;;;1.00;0.38;;;;;;;;;;21002348;28;20105;-59
2022/11/18 13:46:27;;;;;;;1.77;0.70;;;;;;;;;;21001580;28;20416;-60
2022/11/18 13:56:30;;;;;;;2.97;0.50;;;;;;;;;;21000592;28;20550;-60
2022/11/18 14:06:32;;;;;;;1.30;0.40;;;;;;;;;;21000468;28;20048;-62
2022/11/18 14:16:38;;;;;;;2.53;0.30;;;;;;;;;;20999349;28;20055;-60
2022/11/18 14:26:40;;;;;;;1.52;0.38;;;;;;;;;;20998424;28;20538;-60
2022/11/18 14:36:42;;;;;;;0.80;0.17;;;;;;;;;;20997209;28;20053;-58
2022/11/18 14:46:45;;;;;;;0.68;0.32;;;;;;;;;;20997386;28;20041;-60
2022/11/18 14:56:48;;;;;;;2.58;0.73;;;;;;;;;;20996786;28;20048;-59
2022/11/18 15:06:50;;;;;;;1.48;0.20;;;;;;;;;;20996024;28;20045;-60
2022/11/18 15:16:52;;;;;;;0.75;0.20;;;;;;;;;;20996370;28;20462;-61
2022/11/18 15:26:53;;;;;;;0.75;0.20;;;;;;;;;;20995304;28;20462;-61
2022/11/18 15:36:55;;;;;;;1.80;0.50;;;;;;;;;;20995551;28;20492;-62
2022/11/18 15:46:58;;;;;;;4.13;1.10;;;;;;;;;;20996773;28;20044;-59
2022/11/18 15:57:00;;;;;;;3.35;1.30;;;;;;;;;;21009542;28;20062;-60
2022/11/18 16:07:02;;;;;;;1.13;0.40;;;;;;;;;;21008558;28;20042;-59
2022/11/18 16:17:04;;;;;;;1.48;0.50;;;;;;;;;;21008630;28;20048;-60
2022/11/18 16:27:05;;;;;;;1.02;0.30;;;;;;;;;;21007727;28;20053;-61
2022/11/18 16:37:07;;;;;;;5.63;0.38;;;;;;;;;;21006721;28;20091;-63
2022/11/18 16:47:11;;;;;;;1.45;0.20;;;;;;;;;;21005929;28;20052;-60
2022/11/18 16:57:13;;;;;;;1.20;0.28;;;;;;;;;;21005971;28;20450;-59
2022/11/18 17:07:16;;;;;;;1.52;0.50;;;;;;;;;;21003889;28;20074;-61
2022/11/18 17:17:18;;;;;;;1.23;0.30;;;;;;;;;;21003613;28;20094;-64
2022/11/18 17:27:19;;;;;;;2.28;0.22;;;;;;;;;;21002200;28;20049;-64
2022/11/18 17:37:21;;;;;;;1.25;0.40;;;;;;;;;;21002079;28;20507;-62
2022/11/18 17:47:23;;;;;;;1.08;0.40;;;;;;;;;;21001454;28;20144;-61
2022/11/18 17:57:25;;;;;;;3.30;0.32;;;;;;;;;;21000542;28;20472;-73
2022/11/18 18:07:29;;;;;;;4.60;0.80;;;;;;;;;;21000231;28;20055;-67
2022/11/18 18:17:30;;;;;;;1.25;0.30;;;;;;;;;;20980941;28;20053;-70
2022/11/18 18:27:32;;;;;;;2.28;0.70;;;;;;;;;;20998256;28;20126;-63
2022/11/18 18:37:34;;;;;;;2.22;0.40;;;;;;;;;;20997932;28;20452;-64
2022/11/18 18:47:36;;;;;;;0.70;0.32;;;;;;;;;;20997630;28;20385;-62
2022/11/18 18:57:38;;;;;;;1.92;0.63;;;;;;;;;;20996629;28;20075;-63
2022/11/18 19:07:41;;;;;;;1.38;0.47;;;;;;;;;;20996014;28;20457;-66
2022/11/18 19:17:43;;;;;;;1.85;0.98;;;;;;;;;;20977598;28;20059;-69
2022/11/18 19:27:45;;;;;;;1.85;0.70;;;;;;;;;;21005479;28;20133;-64
2022/11/18 19:37:47;;;;;;;3.10;1.33;;;;;;;;;;21012653;28;20121;-65
2022/11/18 19:47:48;;;;;;;1.25;0.60;;;;;;;;;;21010824;28;20053;-62
2022/11/18 19:57:50;;;;;;;1.60;0.60;;;;;;;;;;21010194;28;20048;-62
2022/11/18 20:07:55;;;;;;;2.95;1.13;;;;;;;;;;21009587;28;20056;-60
2022/11/18 20:17:57;;;;;;;1.65;0.57;;;;;;;;;;21007903;28;20055;-60
2022/11/18 20:27:59;;;;;;;3.40;1.50;;;;;;;;;;21007813;28;20130;-62
2022/11/18 20:38:00;;;;;;;4.57;1.30;;;;;;;;;;21006521;28;20060;-61
2022/11/18 20:48:02;;;;;;;4.40;1.45;;;;;;;;;;21006928;28;20052;-61
2022/11/18 20:58:04;;;;;;;2.95;1.50;;;;;;;;;;21006209;28;20075;-61
2022/11/18 21:08:06;;;;;;;4.68;1.52;;;;;;;;;;21004571;28;20049;-63
2022/11/18 21:18:08;;;;;;;6.32;1.40;;;;;;;;;;21004296;28;20051;-62
2022/11/18 21:28:10;;;;;;;2.30;0.77;;;;;;;;;;21004011;28;20070;-63
2022/11/18 21:38:11;;;;;;;1.98;1.10;;;;;;;;;;21003103;28;20048;-62
2022/11/18 21:48:13;;;;;;;3.03;1.08;;;;;;;;;;21001842;28;20059;-62
2022/11/18 21:58:15;;;;;;;13.48;7.22;;;;;;;;;;21000896;28;20053;-62
2022/11/18 22:08:16;;;;;;;3.15;1.17;;;;;;;;;;21000572;28;20114;-60
2022/11/18 22:18:18;;;;;;;3.05;1.10;;;;;;;;;;20999628;28;20052;-62
2022/11/18 22:28:20;;;;;;;1.70;0.73;;;;;;;;;;20998149;28;20049;-62
2022/11/18 22:38:22;;;;;;;1.58;0.63;;;;;;;;;;20997426;28;20454;-62
2022/11/18 22:48:23;;;;;;;2.53;0.77;;;;;;;;;;20997612;28;20044;-60
2022/11/18 22:58:25;;;;;;;1.95;0.50;;;;;;;;;;20996340;28;20089;-62
2022/11/18 23:08:28;;;;;;;3.92;1.00;;;;;;;;;;20996481;28;20041;-61
2022/11/18 23:18:30;;;;;;;3.65;1.30;;;;;;;;;;20995313;28;20056;-62
2022/11/18 23:28:32;;;;;;;1.48;0.60;;;;;;;;;;20995429;28;20127;-62
2022/11/18 23:38:34;;;;;;;1.60;0.50;;;;;;;;;;20995314;28;20052;-62
2022/11/18 23:48:39;;;;;;;1.23;0.57;;;;;;;;;;20995453;28;20045;-58
2022/11/18 23:58:42;;;;;;;1.77;0.70;;;;;;;;;;20995409;28;20102;-61
